createdAt,value
2023-03-24T00:00:12.821Z,4.20
2023-03-24T00:03:20.899Z,3.50
2023-03-24T00:06:29.725Z,5.90
2023-03-24T00:09:38.085Z,4.70
2023-03-24T00:12:45.728Z,4.80
2023-03-24T00:15:53.748Z,3.60
2023-03-24T00:19:02.855Z,4.00
2023-03-24T00:22:10.317Z,6.20
2023-03-24T00:25:18.059Z,4.00
2023-03-24T00:28:27.367Z,3.40
2023-03-24T00:31:35.151Z,4.90
2023-03-24T00:34:42.552Z,6.10
2023-03-24T00:37:52.349Z,3.30
2023-03-24T00:40:59.923Z,4.60
2023-03-24T00:44:07.436Z,3.60
2023-03-24T00:47:16.173Z,4.10
2023-03-24T00:50:24.261Z,3.20
2023-03-24T00:53:31.886Z,3.40
2023-03-24T00:56:41.204Z,3.80
2023-03-24T00:59:49.434Z,3.70
2023-03-24T01:02:57.338Z,7.00
2023-03-24T01:06:04.693Z,2.30
2023-03-24T01:09:13.926Z,3.40
2023-03-24T01:12:21.181Z,3.20
2023-03-24T01:15:29.321Z,5.20
2023-03-24T01:18:39.240Z,4.30
2023-03-24T01:21:46.656Z,4.30
2023-03-24T01:24:54.579Z,5.00
2023-03-24T01:28:04.009Z,5.20
2023-03-24T01:31:11.486Z,4.30
2023-03-24T01:34:19.457Z,5.80
2023-03-24T01:37:28.648Z,3.80
2023-03-24T01:40:36.347Z,6.10
2023-03-24T01:43:44.310Z,5.30
2023-03-24T01:46:51.914Z,5.10
2023-03-24T01:50:00.925Z,6.10
2023-03-24T01:53:08.903Z,5.60
2023-03-24T01:56:16.679Z,5.70
2023-03-24T01:59:25.778Z,5.10
2023-03-24T02:02:33.614Z,6.50
2023-03-24T02:05:41.697Z,4.60
2023-03-24T02:08:50.707Z,4.20
2023-03-24T02:11:58.264Z,6.10
2023-03-24T02:15:06.326Z,4.50
2023-03-24T02:18:14.980Z,4.70
2023-03-24T02:21:22.726Z,6.00
2023-03-24T02:24:30.996Z,4.30
2023-03-24T02:27:38.199Z,4.50
2023-03-24T02:30:47.652Z,5.10
2023-03-24T02:33:55.392Z,4.10
2023-03-24T02:37:02.980Z,3.30
2023-03-24T02:40:12.123Z,3.60
2023-03-24T02:43:19.678Z,4.50
2023-03-24T02:46:27.877Z,3.80
2023-03-24T02:49:37.062Z,4.80
2023-03-24T02:52:44.873Z,6.00
2023-03-24T02:55:53.383Z,2.90
2023-03-24T02:59:02.631Z,4.10
2023-03-24T03:02:10.451Z,3.40
2023-03-24T03:05:18.423Z,3.60
2023-03-24T03:08:27.146Z,3.80
2023-03-24T03:11:35.481Z,3.50
2023-03-24T03:14:43.521Z,4.40
2023-03-24T03:17:50.781Z,3.40
2023-03-24T03:21:00.321Z,3.30
2023-03-24T03:24:08.104Z,3.00
2023-03-24T03:27:15.814Z,3.20
2023-03-24T03:30:25.156Z,3.70
2023-03-24T03:33:32.807Z,4.20
2023-03-24T03:36:40.546Z,3.80
2023-03-24T03:39:50.005Z,3.00
2023-03-24T03:42:57.593Z,3.20
2023-03-24T03:46:05.423Z,4.40
2023-03-24T03:49:14.406Z,2.90
2023-03-24T03:52:22.278Z,4.00
2023-03-24T03:55:29.715Z,3.50
2023-03-24T03:58:37.367Z,3.40
2023-03-24T04:01:47.152Z,6.10
2023-03-24T04:05:03.563Z,4.90
2023-03-24T04:07:59.299Z,5.30
2023-03-24T04:11:08.896Z,4.60
2023-03-24T04:14:16.076Z,4.50
2023-03-24T04:17:24.075Z,4.70
2023-03-24T04:20:33.504Z,4.80
2023-03-24T04:23:40.754Z,6.00
2023-03-24T04:26:48.706Z,4.30
2023-03-24T04:29:57.644Z,4.00
2023-03-24T04:33:05.388Z,4.10
2023-03-24T04:36:13.039Z,4.70
2023-03-24T04:39:20.599Z,3.90
2023-03-24T04:42:29.439Z,2.80
2023-03-24T04:45:36.731Z,3.70
2023-03-24T04:48:44.640Z,5.70
2023-03-24T04:51:53.874Z,4.20
2023-03-24T04:55:00.914Z,3.00
2023-03-24T04:58:08.631Z,3.50
2023-03-24T05:01:17.929Z,2.60
2023-03-24T05:04:25.095Z,3.90
2023-03-24T05:07:33.073Z,2.80
2023-03-24T05:10:41.958Z,3.80
2023-03-24T05:13:49.953Z,3.50
2023-03-24T05:16:58.016Z,3.70
2023-03-24T05:20:05.449Z,3.50
2023-03-24T05:23:14.510Z,4.50
2023-03-24T05:26:22.354Z,4.80
2023-03-24T05:29:29.860Z,7.60
2023-03-24T05:32:38.902Z,4.40
2023-03-24T05:35:47.065Z,3.70
2023-03-24T05:38:55.039Z,3.50
2023-03-24T05:42:04.047Z,5.60
2023-03-24T05:45:11.642Z,4.50
2023-03-24T05:48:19.458Z,3.80
2023-03-24T05:51:28.307Z,4.30
2023-03-24T05:54:35.859Z,4.00
2023-03-24T05:57:43.779Z,5.10
2023-03-24T06:00:52.111Z,3.20
2023-03-24T06:03:59.829Z,4.20
2023-03-24T06:07:07.766Z,3.70
2023-03-24T06:10:14.808Z,5.80
2023-03-24T06:13:23.811Z,4.20
2023-03-24T06:16:31.819Z,5.80
2023-03-24T06:19:38.833Z,4.50
2023-03-24T06:22:48.019Z,4.00
2023-03-24T06:25:55.835Z,3.90
2023-03-24T06:29:02.929Z,3.80
2023-03-24T06:32:12.136Z,4.70
2023-03-24T06:35:19.490Z,5.00
2023-03-24T06:38:26.808Z,5.30
2023-03-24T06:41:35.793Z,4.50
2023-03-24T06:44:43.306Z,3.90
2023-03-24T06:47:50.804Z,4.50
2023-03-24T06:50:58.629Z,4.10
2023-03-24T06:54:07.287Z,4.10
2023-03-24T06:57:14.813Z,3.50
2023-03-24T07:00:21.899Z,3.70
2023-03-24T07:03:31.092Z,5.00
2023-03-24T07:06:50.923Z,6.90
2023-03-24T07:09:42.809Z,5.00
2023-03-24T07:12:51.829Z,3.50
2023-03-24T07:15:59.271Z,4.80
2023-03-24T07:19:06.642Z,5.60
2023-03-24T07:22:15.903Z,4.60
2023-03-24T07:25:23.438Z,5.10
2023-03-24T07:28:30.956Z,4.80
2023-03-24T07:31:38.727Z,5.50
2023-03-24T07:34:47.298Z,6.10
2023-03-24T07:37:54.997Z,5.50
2023-03-24T07:41:02.990Z,5.20
2023-03-24T07:44:11.465Z,7.40
2023-03-24T07:47:19.074Z,8.80
2023-03-24T07:50:26.445Z,8.90
2023-03-24T07:53:34.871Z,9.20
2023-03-24T07:56:42.687Z,9.80
2023-03-24T07:59:49.933Z,6.60
2023-03-24T08:02:58.809Z,7.60
2023-03-24T08:06:06.089Z,8.30
2023-03-24T08:09:13.502Z,7.30
2023-03-24T08:12:21.178Z,5.90
2023-03-24T08:15:30.300Z,4.30
2023-03-24T08:18:37.665Z,2.70
2023-03-24T08:21:45.310Z,2.30
2023-03-24T08:24:53.766Z,2.20
2023-03-24T08:28:01.484Z,2.00
2023-03-24T08:31:09.253Z,2.20
2023-03-24T08:34:17.854Z,2.30
2023-03-24T08:37:25.678Z,1.80
2023-03-24T08:40:33.337Z,1.80
2023-03-24T08:43:41.652Z,2.10
2023-03-24T08:46:49.526Z,2.50
2023-03-24T08:49:56.842Z,2.40
2023-03-24T08:53:05.703Z,3.20
2023-03-24T08:56:13.466Z,2.60
2023-03-24T08:59:20.769Z,2.90
2023-03-24T09:02:28.271Z,3.30
2023-03-24T09:05:44.471Z,3.50
2023-03-24T09:08:40.904Z,1.30
2023-03-24T09:11:48.180Z,1.90
2023-03-24T09:14:56.942Z,1.50
2023-03-24T09:18:04.348Z,1.60
2023-03-24T09:21:12.548Z,1.30
2023-03-24T09:24:21.324Z,2.10
2023-03-24T09:27:29.106Z,1.50
2023-03-24T09:30:37.709Z,1.80
2023-03-24T09:33:46.791Z,1.70
2023-03-24T09:36:54.359Z,1.90
2023-03-24T09:40:01.564Z,2.60
2023-03-24T09:43:09.594Z,3.00
2023-03-24T09:46:18.724Z,2.40
2023-03-24T09:49:25.697Z,2.60
2023-03-24T09:52:33.500Z,1.80
2023-03-24T09:55:42.573Z,2.40
2023-03-24T09:58:49.555Z,2.10
2023-03-24T10:01:57.604Z,2.20
2023-03-24T10:05:06.583Z,1.30
2023-03-24T10:08:13.963Z,2.60
2023-03-24T10:11:21.844Z,2.90
2023-03-24T10:14:30.975Z,3.30
2023-03-24T10:17:38.509Z,3.30
2023-03-24T10:20:45.913Z,5.10
2023-03-24T10:23:53.525Z,4.60
2023-03-24T10:27:02.124Z,2.80
2023-03-24T10:30:09.482Z,4.90
2023-03-24T10:33:17.198Z,3.10
2023-03-24T10:36:25.713Z,2.40
2023-03-24T10:39:44.099Z,3.80
2023-03-24T10:42:37.987Z,4.60
2023-03-24T10:45:46.427Z,3.00
2023-03-24T10:48:54.265Z,2.90
2023-03-24T10:52:02.085Z,4.50
2023-03-24T10:55:11.511Z,4.00
2023-03-24T10:58:19.256Z,3.70
2023-03-24T11:01:26.709Z,4.20
2023-03-24T11:04:34.065Z,5.40
2023-03-24T11:07:43.059Z,5.20
2023-03-24T11:10:50.598Z,4.90
2023-03-24T11:13:57.949Z,3.30
2023-03-24T11:17:06.953Z,5.30
2023-03-24T11:20:14.840Z,6.60
2023-03-24T11:23:22.310Z,4.70
2023-03-24T11:26:31.075Z,4.70
2023-03-24T11:29:38.705Z,4.20
2023-03-24T11:32:45.933Z,6.40
2023-03-24T11:36:05.132Z,7.10
2023-03-24T11:38:59.772Z,4.80
2023-03-24T11:42:06.833Z,4.30
2023-03-24T11:45:14.433Z,7.30
2023-03-24T11:48:23.753Z,4.90
2023-03-24T11:51:30.885Z,5.60
2023-03-24T11:54:38.307Z,3.50
2023-03-24T11:57:47.486Z,5.90
2023-03-24T12:00:55.523Z,3.40
2023-03-24T12:04:03.048Z,4.30
2023-03-24T12:07:11.760Z,5.00
2023-03-24T12:10:19.554Z,3.30
2023-03-24T12:13:32.791Z,4.40
2023-03-24T12:16:32.314Z,4.40
2023-03-24T12:19:40.025Z,4.50
2023-03-24T12:22:47.114Z,4.60
2023-03-24T12:25:56.282Z,6.30
2023-03-24T12:29:03.591Z,5.60
2023-03-24T12:32:11.070Z,4.20
2023-03-24T12:35:18.891Z,3.10
2023-03-24T12:38:27.697Z,3.30
2023-03-24T12:41:35.304Z,4.00
2023-03-24T12:44:42.955Z,3.70
2023-03-24T12:47:52.409Z,4.40
2023-03-24T12:50:59.714Z,3.30
2023-03-24T12:54:06.797Z,3.90
2023-03-24T12:57:16.159Z,4.00
2023-03-24T13:00:24.015Z,5.20
2023-03-24T13:03:31.127Z,6.40
2023-03-24T13:06:40.352Z,4.90
2023-03-24T13:09:47.512Z,4.80
2023-03-24T13:12:55.122Z,3.90
2023-03-24T13:16:02.828Z,4.50
2023-03-24T13:19:11.433Z,5.40
2023-03-24T13:22:19.504Z,2.90
2023-03-24T13:25:27.132Z,4.30
2023-03-24T13:28:35.606Z,4.20
2023-03-24T13:31:43.671Z,4.30
2023-03-24T13:34:51.165Z,5.50
2023-03-24T13:38:00.155Z,5.90
2023-03-24T13:41:07.733Z,3.40
2023-03-24T13:44:15.340Z,3.40
2023-03-24T13:47:24.436Z,5.30
2023-03-24T13:50:31.752Z,3.90
2023-03-24T13:53:39.220Z,5.50
2023-03-24T13:56:46.952Z,5.10
2023-03-24T13:59:55.416Z,5.00
2023-03-24T14:03:03.514Z,5.20
2023-03-24T14:06:11.220Z,7.30
2023-03-24T14:09:19.730Z,4.90
2023-03-24T14:12:27.681Z,4.60
2023-03-24T14:15:35.519Z,6.50
2023-03-24T14:18:44.076Z,4.30
2023-03-24T14:21:51.695Z,4.90
2023-03-24T14:24:58.973Z,3.40
2023-03-24T14:28:07.734Z,7.50
2023-03-24T14:31:15.727Z,4.70
2023-03-24T14:34:23.724Z,4.90
2023-03-24T14:37:31.094Z,4.10
2023-03-24T14:40:39.951Z,6.80
2023-03-24T14:43:47.855Z,5.70
2023-03-24T14:46:55.230Z,4.90
2023-03-24T14:50:03.973Z,6.60
2023-03-24T14:53:11.669Z,4.30
2023-03-24T14:56:19.121Z,3.40
2023-03-24T14:59:27.685Z,6.60
2023-03-24T15:02:35.549Z,5.60
2023-03-24T15:05:43.027Z,6.30
2023-03-24T15:08:51.947Z,5.00
2023-03-24T15:12:00.097Z,8.20
2023-03-24T15:15:07.865Z,5.70
2023-03-24T15:18:16.694Z,7.00
2023-03-24T15:21:24.668Z,3.40
2023-03-24T15:24:31.942Z,6.40
2023-03-24T15:27:39.409Z,4.80
2023-03-24T15:30:48.716Z,7.00
2023-03-24T15:33:56.699Z,3.70
2023-03-24T15:37:03.904Z,7.30
2023-03-24T15:40:15.688Z,5.90
2023-03-24T15:40:47.978Z,8.40
2023-03-24T15:43:55.540Z,5.20
2023-03-24T15:47:03.286Z,9.00
2023-03-24T15:50:11.447Z,5.90
2023-03-24T15:53:18.958Z,5.30
2023-03-24T15:54:41.393Z,4.60
2023-03-24T15:57:49.402Z,4.60
2023-03-24T16:00:58.335Z,6.70
2023-03-24T16:04:05.634Z,5.90
2023-03-24T16:07:13.537Z,4.70
2023-03-24T16:10:22.454Z,3.90
2023-03-24T16:13:30.392Z,3.70
2023-03-24T16:16:38.125Z,5.40
2023-03-24T16:19:47.062Z,6.60
2023-03-24T16:22:54.555Z,5.50
2023-03-24T16:26:02.027Z,6.60
2023-03-24T16:29:11.311Z,5.50
2023-03-24T16:32:18.492Z,5.10
2023-03-24T16:35:26.492Z,7.10
2023-03-24T16:38:33.664Z,4.00
2023-03-24T16:41:42.272Z,6.30
2023-03-24T16:44:50.172Z,4.70
2023-03-24T16:47:58.457Z,5.70
2023-03-24T16:51:07.454Z,7.90
2023-03-24T16:54:15.992Z,6.70
2023-03-24T16:57:24.298Z,6.40
2023-03-24T17:00:33.346Z,7.60
2023-03-24T17:03:42.227Z,3.00
2023-03-24T17:06:51.808Z,3.80
2023-03-24T17:10:01.115Z,4.00
2023-03-24T17:13:08.597Z,5.60
2023-03-24T17:16:16.199Z,6.50
2023-03-24T17:19:23.789Z,7.60
2023-03-24T17:22:33.164Z,4.20
2023-03-24T17:25:40.784Z,4.20
2023-03-24T17:28:48.706Z,4.90
2023-03-24T17:31:57.202Z,1.40
2023-03-24T17:35:04.987Z,3.30
2023-03-24T17:38:12.820Z,2.60
2023-03-24T17:41:21.287Z,2.50
2023-03-24T17:44:28.966Z,1.90
2023-03-24T17:47:36.358Z,2.50
2023-03-24T17:50:45.226Z,2.60
2023-03-24T17:53:53.042Z,3.30
2023-03-24T17:57:00.400Z,2.70
2023-03-24T18:00:07.766Z,1.60
2023-03-24T18:03:16.848Z,2.10
2023-03-24T18:06:24.450Z,1.80
2023-03-24T18:09:32.186Z,2.40
2023-03-24T18:12:40.794Z,4.00
2023-03-24T18:15:48.704Z,3.20
2023-03-24T18:18:56.640Z,2.10
2023-03-24T18:22:05.158Z,2.70
2023-03-24T18:25:13.242Z,1.90
2023-03-24T18:28:21.044Z,3.30
2023-03-24T18:31:29.533Z,3.00
2023-03-24T18:34:37.465Z,5.00
2023-03-24T18:37:45.293Z,6.80
2023-03-24T18:40:54.128Z,5.80
2023-03-24T18:44:02.114Z,7.30
2023-03-24T18:47:09.765Z,7.90
2023-03-24T18:50:17.251Z,12.90
2023-03-24T18:53:26.480Z,7.20
2023-03-24T18:56:33.618Z,6.60
2023-03-24T18:59:41.426Z,5.10
2023-03-24T19:02:50.602Z,7.20
2023-03-24T19:05:58.866Z,5.40
2023-03-24T19:09:06.313Z,4.70
2023-03-24T19:12:15.326Z,6.90
2023-03-24T19:15:23.560Z,7.70
2023-03-24T19:18:31.082Z,6.40
2023-03-24T19:21:39.872Z,13.40
2023-03-24T19:24:47.773Z,11.50
2023-03-24T19:27:55.482Z,10.70
2023-03-24T19:31:03.154Z,8.90
2023-03-24T19:34:12.910Z,9.10
2023-03-24T19:37:20.811Z,11.30
2023-03-24T19:40:28.136Z,8.30
2023-03-24T19:43:37.562Z,9.80
2023-03-24T19:46:46.053Z,8.90
2023-03-24T19:49:54.139Z,7.70
2023-03-24T19:53:02.927Z,7.50
2023-03-24T19:56:10.443Z,7.10
2023-03-24T19:59:18.157Z,6.90
2023-03-24T20:02:27.450Z,6.30
2023-03-24T20:05:35.018Z,9.20
2023-03-24T20:08:42.573Z,10.50
2023-03-24T20:11:50.095Z,7.80
2023-03-24T20:14:59.309Z,9.60
2023-03-24T20:18:06.825Z,9.90
2023-03-24T20:21:14.182Z,8.30
2023-03-24T20:24:23.702Z,7.50
2023-03-24T20:27:30.797Z,10.10
2023-03-24T20:30:38.512Z,11.00
2023-03-24T20:33:47.805Z,6.90
2023-03-24T20:36:54.895Z,7.50
2023-03-24T20:40:03.697Z,5.90
2023-03-24T20:43:12.755Z,7.60
2023-03-24T20:46:20.772Z,6.60
2023-03-24T20:49:28.642Z,7.50
2023-03-24T20:52:36.207Z,6.40
2023-03-24T20:55:45.361Z,6.60
2023-03-24T20:58:52.505Z,7.50
2023-03-24T21:02:00.083Z,5.30
2023-03-24T21:05:09.329Z,5.00
2023-03-24T21:08:16.363Z,4.80
2023-03-24T21:11:24.033Z,2.60
2023-03-24T21:14:33.564Z,4.50
2023-03-24T21:17:40.911Z,4.10
2023-03-24T21:20:48.946Z,4.50
2023-03-24T21:23:58.341Z,4.80
2023-03-24T21:27:05.466Z,2.60
2023-03-24T21:30:13.502Z,4.50
2023-03-24T21:33:22.288Z,4.00
2023-03-24T21:36:30.120Z,3.90
2023-03-24T21:39:37.892Z,3.20
2023-03-24T21:42:45.331Z,2.30
2023-03-24T21:45:54.227Z,2.50
2023-03-24T21:49:02.112Z,2.90
2023-03-24T21:52:09.766Z,2.60
2023-03-24T21:55:18.733Z,1.60
2023-03-24T21:58:26.374Z,2.70
2023-03-24T22:01:33.735Z,1.50
2023-03-24T22:04:42.469Z,3.00
2023-03-24T22:07:50.073Z,3.80
2023-03-24T22:10:57.937Z,3.40
2023-03-24T22:14:07.248Z,3.20
2023-03-24T22:17:14.286Z,5.40
2023-03-24T22:20:21.883Z,3.40
2023-03-24T22:23:29.864Z,0.80
2023-03-24T22:26:38.221Z,3.30
2023-03-24T22:29:45.929Z,2.50
2023-03-24T22:32:53.526Z,2.60
2023-03-24T22:36:02.403Z,5.20
2023-03-24T22:39:09.808Z,5.50
2023-03-24T22:42:17.448Z,4.00
2023-03-24T22:45:26.636Z,2.00
2023-03-24T22:48:34.386Z,1.80
2023-03-24T22:51:41.888Z,2.80
2023-03-24T22:54:50.639Z,1.70
2023-03-24T22:57:58.024Z,4.10
2023-03-24T23:01:05.459Z,2.40
2023-03-24T23:04:13.009Z,5.40
2023-03-24T23:07:21.917Z,2.20
2023-03-24T23:10:29.905Z,2.10
2023-03-24T23:13:37.465Z,1.90
2023-03-24T23:16:46.265Z,2.80
2023-03-24T23:19:54.044Z,3.50
2023-03-24T23:23:01.031Z,2.40
2023-03-24T23:26:10.124Z,3.10
2023-03-24T23:29:17.530Z,2.80
2023-03-24T23:32:24.862Z,4.10
2023-03-24T23:35:34.075Z,2.70
2023-03-24T23:38:41.838Z,1.70
2023-03-24T23:41:49.025Z,1.90
2023-03-24T23:44:58.281Z,2.70
2023-03-24T23:48:05.943Z,2.20
2023-03-24T23:51:13.315Z,2.10
2023-03-24T23:54:21.325Z,3.30
2023-03-24T23:57:30.292Z,2.80
